Pagrindinis puslapis
METAR-TAF:

METAR-TAF

Oro uostai :

Melilja, Ispanija

platuma: 35-17N, ilguma: 002-57W, Aukštis: 47 m

Dabartinis oras

Ataskaita buvo paskelbta 23 minutes, ne 11:00 UTC
Vėjas 6 kt iš Pietų/Pietvakarių su gūsio iki 18 kt
Temperatūra 18°C
Drėgmė 42%
Slėgis 1019 hPa
Matomumas 10 km arba daugiau
nėra debesų žemiau 1500 m ir nėra kamuolinių lietaus debesų

METAR: GEML 251100Z 20006G18KT CAVOK 18/05 Q1019

Laikas: 12:23 (11:23 UTC)

Prognozė

Ataskaita buvo paskelbta 3 valandos ir 23 minutes, ne 08:00 UTC
Prognozė galioja nuo 25 metu 09 UTC su 26 metu 09 UTC
Vėjas 9 kt iš Vakarų
Matomumas 10 km arba daugiau
Mažai debesys ne aukštis 2000 ft

TAF: GEML 250800Z 2509/2609 27009KT 9999 FEW020 TX17/2513Z TN10/2606Z

Orai ataskaitas ir orų prognozės (METAR, TAF).

turimą stotys yra geltonos ir raudonos taškus žemėlapyje.

Perkelti pele per norėdami pamatyti stoties vardą.

Tada spustelėkite, norėdami matyti oro stebėjimo ir prognozės.

Norėdami pakeisti žemėlapį: spustelėkite ant žalios mygtukų su juodo kryžiaus žemyn,; žalią mygtuką su brūkšneliu, jei norite nutolinti; arba žalių rodyklių gretimoms žemėlapius.


METAR-TAF: